CES8468 ZULS-ZUCK
Flight info
| Callsign | CES8468 |
|---|---|
| Flight time | N/A |
| Altitude | 37100 |
| Route | LXA W500 DM W9 CZH B213 VINEX VINXD2 |
| Aircraft | A319/M-SDE3FGHIRWY/LB1 |
Departure
| Time | 2026-05-09 12:45 |
|---|---|
| Airport | Lhasa Gonggar International Airport (ZULS) |
Arrival
| Time | N/A |
|---|---|
| Airport | Chongqing Jiangbei International Airport (ZUCK) |
| Time | Latitude | Longitude | Altitude | Speed | Heading |
|---|---|---|---|---|---|
| 2026-05-09 12:12 | 29.29361 | 90.89456 | 11574 ft | 0 kts | 179° |
| 2026-05-09 12:23 | 29.29366 | 90.89456 | 11573 ft | 2 kts | 180° |
| 2026-05-09 12:23 | 29.29386 | 90.89457 | 11578 ft | 3 kts | 187° |
| 2026-05-09 12:24 | 29.29406 | 90.89460 | 11571 ft | 3 kts | 195° |
| 2026-05-09 12:24 | 29.29425 | 90.89467 | 11577 ft | 3 kts | 207° |
| 2026-05-09 12:24 | 29.29442 | 90.89479 | 11574 ft | 3 kts | 232° |
| 2026-05-09 12:24 | 29.29449 | 90.89494 | 11590 ft | 1 kts | 268° |
| 2026-05-09 12:25 | 29.29449 | 90.89495 | 11590 ft | 2 kts | 268° |
| 2026-05-09 12:28 | 29.29449 | 90.89490 | 11590 ft | 4 kts | 268° |
| 2026-05-09 12:29 | 29.29448 | 90.89454 | 11584 ft | 9 kts | 268° |
| 2026-05-09 12:29 | 29.29447 | 90.89419 | 11586 ft | 0 kts | 269° |
| 2026-05-09 12:30 | 29.29446 | 90.89384 | 11590 ft | 7 kts | 269° |
| 2026-05-09 12:30 | 29.29494 | 90.89372 | 11589 ft | 14 kts | 351° |
| 2026-05-09 12:30 | 29.29515 | 90.89317 | 11590 ft | 9 kts | 270° |
| 2026-05-09 12:41 | 29.29515 | 90.89232 | 11592 ft | 10 kts | 276° |
| 2026-05-09 12:41 | 29.29620 | 90.89195 | 11587 ft | 24 kts | 359° |
| 2026-05-09 12:41 | 29.29661 | 90.89194 | 11585 ft | 14 kts | 359° |
| 2026-05-09 12:42 | 29.29668 | 90.89194 | 11580 ft | 0 kts | 359° |
| 2026-05-09 12:42 | 29.29701 | 90.89194 | 11588 ft | 13 kts | 359° |
| 2026-05-09 12:43 | 29.29782 | 90.89206 | 11589 ft | 7 kts | 77° |
| 2026-05-09 12:43 | 29.29778 | 90.89297 | 11589 ft | 3 kts | 88° |
| 2026-05-09 12:43 | 29.29780 | 90.89350 | 11588 ft | 9 kts | 89° |
| 2026-05-09 12:43 | 29.29780 | 90.89354 | 11593 ft | 0 kts | 88° |
| 2026-05-09 12:44 | 29.29780 | 90.89357 | 11593 ft | 3 kts | 88° |
| 2026-05-09 12:44 | 29.29783 | 90.89562 | 11597 ft | 59 kts | 89° |
| 2026-05-09 12:44 | 29.29795 | 90.90310 | 11588 ft | 127 kts | 90° |
| 2026-05-09 12:45 | 29.29817 | 90.91550 | 11589 ft | 183 kts | 88° |
| 2026-05-09 12:45 | 29.29838 | 90.93121 | 11857 ft | 203 kts | 87° |
| 2026-05-09 12:45 | 29.29852 | 90.94757 | 12476 ft | 206 kts | 86° |
| 2026-05-09 12:45 | 29.29865 | 90.96397 | 13248 ft | 204 kts | 88° |
| 2026-05-09 12:46 | 29.29879 | 90.98057 | 13448 ft | 216 kts | 88° |
| 2026-05-09 12:46 | 29.29938 | 90.99827 | 13600 ft | 228 kts | 82° |
| 2026-05-09 12:46 | 29.30004 | 91.00368 | 13636 ft | 231 kts | 78° |
| 2026-05-09 12:50 | 29.30322 | 91.01647 | 13479 ft | 251 kts | 68° |
| 2026-05-09 12:50 | 29.31059 | 91.03529 | 13593 ft | 268 kts | 62° |
| 2026-05-09 12:50 | 29.31713 | 91.05585 | 13851 ft | 280 kts | 77° |
| 2026-05-09 12:50 | 29.31909 | 91.07821 | 14240 ft | 284 kts | 91° |
| 2026-05-09 12:51 | 29.31617 | 91.10071 | 14794 ft | 287 kts | 105° |
| 2026-05-09 12:51 | 29.31071 | 91.12325 | 15040 ft | 303 kts | 103° |
| 2026-05-09 12:51 | 29.30978 | 91.12765 | 15055 ft | 307 kts | 102° |
| 2026-05-09 12:59 | 29.30929 | 91.13016 | 15088 ft | 305 kts | 98° |
| 2026-05-09 12:59 | 29.30945 | 91.15314 | 15919 ft | 290 kts | 84° |
| 2026-05-09 12:59 | 29.30817 | 91.17686 | 16066 ft | 309 kts | 99° |
| 2026-05-09 12:59 | 29.30370 | 91.20161 | 16250 ft | 325 kts | 100° |
| 2026-05-09 13:00 | 29.29978 | 91.22742 | 16683 ft | 330 kts | 97° |
| 2026-05-09 13:00 | 29.29675 | 91.25336 | 17198 ft | 334 kts | 95° |
| 2026-05-09 13:00 | 29.29435 | 91.27991 | 17723 ft | 337 kts | 94° |
| 2026-05-09 13:00 | 29.29233 | 91.30671 | 18269 ft | 339 kts | 93° |
| 2026-05-09 13:01 | 29.29050 | 91.33379 | 18738 ft | 342 kts | 93° |
| 2026-05-09 13:01 | 29.28872 | 91.36109 | 19190 ft | 345 kts | 93° |
| 2026-05-09 13:01 | 29.28688 | 91.38859 | 19642 ft | 348 kts | 94° |
| 2026-05-09 13:01 | 29.28491 | 91.41641 | 20090 ft | 351 kts | 95° |
| 2026-05-09 13:02 | 29.28281 | 91.44441 | 20536 ft | 354 kts | 95° |
| 2026-05-09 13:02 | 29.28067 | 91.47265 | 20982 ft | 357 kts | 95° |
| 2026-05-09 13:02 | 29.27850 | 91.50107 | 21426 ft | 360 kts | 95° |
| 2026-05-09 13:02 | 29.27626 | 91.52972 | 21871 ft | 362 kts | 96° |
| 2026-05-09 13:03 | 29.27387 | 91.55852 | 22310 ft | 364 kts | 96° |
| 2026-05-09 13:03 | 29.27138 | 91.58745 | 22748 ft | 367 kts | 96° |
| 2026-05-09 13:03 | 29.26881 | 91.61664 | 23188 ft | 369 kts | 96° |
| 2026-05-09 13:03 | 29.26626 | 91.64602 | 23618 ft | 372 kts | 96° |
| 2026-05-09 13:04 | 29.26369 | 91.67560 | 23977 ft | 374 kts | 96° |
| 2026-05-09 13:04 | 29.26111 | 91.70540 | 24344 ft | 377 kts | 96° |
| 2026-05-09 13:04 | 29.25853 | 91.73531 | 24713 ft | 379 kts | 96° |
| 2026-05-09 13:04 | 29.25596 | 91.76544 | 25081 ft | 381 kts | 96° |
| 2026-05-09 13:05 | 29.25412 | 91.79610 | 25243 ft | 391 kts | 94° |
| 2026-05-09 13:05 | 29.25312 | 91.82768 | 25373 ft | 402 kts | 92° |
| 2026-05-09 13:05 | 29.25256 | 91.86003 | 25500 ft | 412 kts | 91° |
| 2026-05-09 13:05 | 29.25212 | 91.89325 | 25625 ft | 422 kts | 91° |
| 2026-05-09 13:06 | 29.25159 | 91.92725 | 25743 ft | 431 kts | 92° |
| 2026-05-09 13:06 | 29.25089 | 91.96130 | 25916 ft | 437 kts | 92° |
| 2026-05-09 13:06 | 29.24999 | 91.99630 | 26195 ft | 441 kts | 92° |
| 2026-05-09 13:06 | 29.24896 | 92.03150 | 26507 ft | 443 kts | 92° |
| 2026-05-09 13:07 | 29.24791 | 92.06684 | 26816 ft | 446 kts | 92° |
| 2026-05-09 13:07 | 29.24685 | 92.10237 | 27127 ft | 448 kts | 92° |
| 2026-05-09 13:07 | 29.24578 | 92.13812 | 27428 ft | 450 kts | 92° |
| 2026-05-09 13:07 | 29.24472 | 92.17399 | 27734 ft | 452 kts | 92° |
| 2026-05-09 13:08 | 29.24368 | 92.21009 | 28035 ft | 454 kts | 92° |
| 2026-05-09 13:08 | 29.24266 | 92.24634 | 28335 ft | 456 kts | 92° |
| 2026-05-09 13:08 | 29.24169 | 92.28269 | 28623 ft | 459 kts | 92° |
| 2026-05-09 13:08 | 29.24074 | 92.31933 | 28921 ft | 461 kts | 92° |
| 2026-05-09 13:09 | 29.23977 | 92.35608 | 29207 ft | 463 kts | 92° |
| 2026-05-09 13:09 | 29.23877 | 92.39304 | 29498 ft | 465 kts | 92° |
| 2026-05-09 13:09 | 29.23774 | 92.43014 | 29779 ft | 467 kts | 92° |
| 2026-05-09 13:09 | 29.23668 | 92.46742 | 30055 ft | 469 kts | 92° |
| 2026-05-09 13:10 | 29.23561 | 92.50490 | 30275 ft | 472 kts | 92° |
| 2026-05-09 13:10 | 29.23553 | 92.54209 | 30469 ft | 475 kts | 86° |
| 2026-05-09 13:10 | 29.24033 | 92.57953 | 30667 ft | 478 kts | 77° |
| 2026-05-09 13:10 | 29.25036 | 92.61587 | 30867 ft | 480 kts | 67° |
| 2026-05-09 13:11 | 29.26528 | 92.65020 | 31049 ft | 482 kts | 59° |
| 2026-05-09 13:11 | 29.28195 | 92.68364 | 31237 ft | 485 kts | 60° |
| 2026-05-09 13:11 | 29.29865 | 92.71729 | 31432 ft | 487 kts | 60° |
| 2026-05-09 13:11 | 29.31540 | 92.75113 | 31718 ft | 487 kts | 60° |
| 2026-05-09 13:12 | 29.33212 | 92.78493 | 32017 ft | 487 kts | 60° |
| 2026-05-09 13:12 | 29.34880 | 92.81871 | 32296 ft | 487 kts | 60° |
| 2026-05-09 13:12 | 29.36553 | 92.85258 | 32569 ft | 488 kts | 60° |
| 2026-05-09 13:12 | 29.38226 | 92.88645 | 32872 ft | 488 kts | 60° |
| 2026-05-09 13:13 | 29.39878 | 92.91992 | 33148 ft | 488 kts | 60° |
| 2026-05-09 13:13 | 29.41549 | 92.95380 | 33457 ft | 488 kts | 60° |
| 2026-05-09 13:13 | 29.43220 | 92.98769 | 33771 ft | 488 kts | 60° |
| 2026-05-09 13:13 | 29.44894 | 93.02161 | 34062 ft | 489 kts | 60° |
| 2026-05-09 13:14 | 29.46566 | 93.05558 | 34335 ft | 489 kts | 60° |
| 2026-05-09 13:14 | 29.48239 | 93.08966 | 34530 ft | 491 kts | 60° |
| 2026-05-09 13:16 | 29.60078 | 93.33198 | 35151 ft | 500 kts | 60° |
| 2026-05-09 13:16 | 29.62905 | 93.39002 | 35149 ft | 500 kts | 60° |
| 2026-05-09 13:17 | 29.66303 | 93.45972 | 35145 ft | 500 kts | 60° |
| 2026-05-09 13:17 | 29.69709 | 93.52956 | 35150 ft | 500 kts | 60° |
| 2026-05-09 13:18 | 29.73098 | 93.59955 | 35147 ft | 501 kts | 60° |
| 2026-05-09 13:18 | 29.76485 | 93.66978 | 35151 ft | 502 kts | 60° |
| 2026-05-09 13:19 | 29.79871 | 93.73992 | 35149 ft | 501 kts | 60° |
| 2026-05-09 13:19 | 29.83265 | 93.81013 | 35147 ft | 502 kts | 60° |
| 2026-05-09 13:20 | 29.86656 | 93.88047 | 35150 ft | 502 kts | 60° |
| 2026-05-09 13:20 | 29.89679 | 93.95273 | 35154 ft | 501 kts | 73° |
| 2026-05-09 13:21 | 29.91331 | 94.03052 | 35160 ft | 500 kts | 78° |
| 2026-05-09 13:21 | 29.92866 | 94.10820 | 35171 ft | 500 kts | 78° |
| 2026-05-09 13:22 | 29.94426 | 94.18650 | 35177 ft | 501 kts | 78° |
| 2026-05-09 13:22 | 29.95972 | 94.26492 | 35191 ft | 502 kts | 78° |
| 2026-05-09 13:23 | 29.99815 | 94.46172 | 35195 ft | 503 kts | 78° |
| 2026-05-09 13:24 | 30.01350 | 94.54059 | 35194 ft | 504 kts | 78° |
| 2026-05-09 13:24 | 30.02885 | 94.61957 | 35195 ft | 504 kts | 78° |
| 2026-05-09 13:25 | 30.04409 | 94.69864 | 35188 ft | 504 kts | 78° |
| 2026-05-09 13:26 | 30.06672 | 94.81672 | 35187 ft | 505 kts | 78° |
| 2026-05-09 13:26 | 30.08187 | 94.89602 | 35182 ft | 506 kts | 78° |
| 2026-05-09 13:27 | 30.09700 | 94.97542 | 35187 ft | 506 kts | 79° |
| 2026-05-09 13:27 | 30.11261 | 95.05484 | 35192 ft | 508 kts | 77° |
| 2026-05-09 13:28 | 30.12869 | 95.13440 | 35193 ft | 508 kts | 78° |
| 2026-05-09 13:28 | 30.14451 | 95.21389 | 35199 ft | 508 kts | 78° |
| 2026-05-09 13:29 | 30.16019 | 95.29346 | 35207 ft | 508 kts | 78° |
| 2026-05-09 13:29 | 30.17583 | 95.37308 | 35212 ft | 508 kts | 78° |
| 2026-05-09 13:30 | 30.19147 | 95.45292 | 35218 ft | 509 kts | 78° |
| 2026-05-09 13:30 | 30.20704 | 95.53217 | 35221 ft | 508 kts | 78° |
| 2026-05-09 13:31 | 30.22259 | 95.61208 | 35227 ft | 510 kts | 79° |
| 2026-05-09 13:31 | 30.23801 | 95.69212 | 35232 ft | 509 kts | 79° |
| 2026-05-09 13:32 | 30.25348 | 95.77216 | 35234 ft | 510 kts | 78° |
| 2026-05-09 13:32 | 30.27677 | 95.89252 | 35233 ft | 512 kts | 78° |
| 2026-05-09 13:33 | 30.29222 | 95.97296 | 35225 ft | 512 kts | 79° |
| 2026-05-09 13:33 | 30.30760 | 96.05292 | 35214 ft | 513 kts | 78° |
| 2026-05-09 13:34 | 30.32374 | 96.13335 | 35200 ft | 513 kts | 78° |
| 2026-05-09 13:34 | 30.34015 | 96.21380 | 35186 ft | 513 kts | 78° |
| 2026-05-09 13:35 | 30.34677 | 96.24655 | 35174 ft | 513 kts | 78° |